Terminal Aerodrome Forecast
Issued by NWS Charleston, WV

Current Version | Previous Version | Graphics & Text | Print | Product List | Glossary On
Versions: 1 2 3 4 5 6 7 8 9 10 11 12 13 14 15 16 17 18 19 20 21 22
411
FTUS41 KRLX 230253 AAA
TAFBKW
TAF AMD
KBKW 230253Z 2303/2324 26003KT P6SM SKC
     FM230800 VRB03KT 6SM BR SCT130
     FM231300 00000KT P6SM SCT050=

USA.gov is the U.S. government's official web portal to all federal, state and local government web resources and services.